createdAt,value
2019-05-11T00:02:09.365Z,3.07
2019-05-11T00:04:38.999Z,3.10
2019-05-11T00:07:08.731Z,3.27
2019-05-11T00:09:38.406Z,3.43
2019-05-11T00:12:08.150Z,3.07
2019-05-11T00:14:37.895Z,2.60
2019-05-11T00:17:07.552Z,2.70
2019-05-11T00:19:37.205Z,2.73
2019-05-11T00:22:06.880Z,2.90
2019-05-11T00:24:36.540Z,3.20
2019-05-11T00:27:06.211Z,4.57
2019-05-11T00:29:35.942Z,3.50
2019-05-11T00:32:05.617Z,3.33
2019-05-11T00:34:35.272Z,3.53
2019-05-11T00:37:06.445Z,3.50
2019-05-11T00:39:36.113Z,3.70
2019-05-11T00:42:05.772Z,3.10
2019-05-11T00:44:35.510Z,3.23
2019-05-11T00:47:05.165Z,3.20
2019-05-11T00:49:34.837Z,3.50
2019-05-11T00:52:04.649Z,3.87
2019-05-11T00:54:34.303Z,3.40
2019-05-11T00:57:03.964Z,3.40
2019-05-11T00:59:33.626Z,3.37
2019-05-11T01:02:03.284Z,3.50
2019-05-11T01:04:32.950Z,3.13
2019-05-11T01:07:02.717Z,4.00
2019-05-11T01:09:32.446Z,4.03
2019-05-11T01:12:02.103Z,3.73
2019-05-11T01:14:31.770Z,3.50
2019-05-11T01:17:01.511Z,3.03
2019-05-11T01:19:31.184Z,4.33
2019-05-11T01:22:00.906Z,3.43
2019-05-11T01:24:32.133Z,2.80
2019-05-11T01:27:01.827Z,3.73
2019-05-11T01:29:31.557Z,3.30
2019-05-11T01:32:01.231Z,3.40
2019-05-11T01:34:30.887Z,3.60
2019-05-11T01:37:00.551Z,3.10
2019-05-11T01:39:30.283Z,3.77
2019-05-11T01:41:59.947Z,3.43
2019-05-11T01:44:29.616Z,3.63
2019-05-11T01:46:59.327Z,3.40
2019-05-11T01:49:28.986Z,3.47
2019-05-11T01:51:58.669Z,3.40
2019-05-11T01:54:28.328Z,3.43
2019-05-11T01:56:58.069Z,3.80
2019-05-11T01:59:27.745Z,4.73
2019-05-11T02:01:57.490Z,4.67
2019-05-11T02:04:27.157Z,4.80
2019-05-11T02:06:56.817Z,4.80
2019-05-11T02:09:26.478Z,5.70
2019-05-11T02:11:56.126Z,4.93
2019-05-11T02:14:27.096Z,4.90
2019-05-11T02:16:56.724Z,5.60
2019-05-11T02:19:26.388Z,4.70
2019-05-11T02:21:56.056Z,5.17
2019-05-11T02:24:25.725Z,5.00
2019-05-11T02:26:55.384Z,5.17
2019-05-11T02:29:26.562Z,5.07
2019-05-11T02:31:56.236Z,5.43
2019-05-11T02:34:25.906Z,5.90
2019-05-11T02:36:55.569Z,5.90
2019-05-11T02:39:25.317Z,5.53
2019-05-11T02:41:54.993Z,5.53
2019-05-11T02:44:24.659Z,5.87
2019-05-11T02:46:54.334Z,5.67
2019-05-11T02:49:27.744Z,5.60
2019-05-11T02:51:57.154Z,5.53
2019-05-11T02:54:27.402Z,5.37
2019-05-11T02:56:57.068Z,4.80
2019-05-11T02:59:29.834Z,4.70
2019-05-11T03:04:43.106Z,4.70
2019-05-11T03:07:12.758Z,4.60
2019-05-11T03:09:43.935Z,5.43
2019-05-11T03:12:13.590Z,4.67
2019-05-11T03:14:43.239Z,4.80
2019-05-11T03:17:14.595Z,4.83
2019-05-11T03:19:44.229Z,4.93
2019-05-11T03:22:14.043Z,4.97
2019-05-11T03:24:43.741Z,4.87
2019-05-11T03:27:14.593Z,5.13
2019-05-11T03:29:44.257Z,4.83
2019-05-11T03:32:13.981Z,4.70
2019-05-11T03:34:43.662Z,4.30
2019-05-11T03:37:13.309Z,4.40
2019-05-11T03:39:42.982Z,4.10
2019-05-11T03:42:15.159Z,4.17
2019-05-11T03:44:44.030Z,4.50
2019-05-11T03:47:13.769Z,4.30
2019-05-11T03:49:43.456Z,4.50
2019-05-11T03:52:13.090Z,4.40
2019-05-11T03:54:42.775Z,4.57
2019-05-11T03:57:12.426Z,4.53
2019-05-11T03:59:42.087Z,4.43
2019-05-11T04:02:11.821Z,4.80
2019-05-11T04:04:41.485Z,4.63
2019-05-11T04:07:11.169Z,4.23
2019-05-11T04:09:40.818Z,4.67
2019-05-11T04:12:10.473Z,4.60
2019-05-11T04:14:40.151Z,4.33
2019-05-11T04:17:09.815Z,4.03
2019-05-11T04:19:39.480Z,4.47
2019-05-11T04:22:09.137Z,4.70
2019-05-11T04:24:38.807Z,4.20
2019-05-11T04:27:08.481Z,4.20
2019-05-11T04:29:38.150Z,4.50
2019-05-11T04:32:07.827Z,4.70
2019-05-11T04:34:37.484Z,5.33
2019-05-11T04:37:07.175Z,6.10
2019-05-11T04:39:36.826Z,6.90
2019-05-11T04:42:07.989Z,7.10
2019-05-11T04:44:41.879Z,8.80
2019-05-11T04:47:09.104Z,8.87
2019-05-11T04:49:38.766Z,10.37
2019-05-11T04:52:08.446Z,9.27
2019-05-11T04:54:38.103Z,10.60
2019-05-11T04:57:07.777Z,11.03
2019-05-11T04:59:37.458Z,11.13
2019-05-11T05:02:07.112Z,10.77
2019-05-11T05:04:36.852Z,11.27
2019-05-11T05:07:10.733Z,11.60
2019-05-11T05:09:42.545Z,11.27
2019-05-11T05:12:14.139Z,11.80
2019-05-11T05:14:40.704Z,11.93
2019-05-11T05:17:10.382Z,12.30
2019-05-11T05:19:40.044Z,12.63
2019-05-11T05:22:09.707Z,14.60
2019-05-11T05:24:39.385Z,15.10
2019-05-11T05:27:09.061Z,15.87
2019-05-11T05:29:38.731Z,16.60
2019-05-11T05:32:08.421Z,19.23
2019-05-11T05:34:38.073Z,19.33
2019-05-11T05:37:07.945Z,18.93
2019-05-11T05:39:37.614Z,19.73
2019-05-11T05:42:07.369Z,20.13
2019-05-11T05:44:37.026Z,19.87
2019-05-11T05:47:06.684Z,18.87
2019-05-11T05:49:36.365Z,19.93
2019-05-11T05:52:06.420Z,18.83
2019-05-11T05:54:39.100Z,18.30
2019-05-11T05:57:08.765Z,17.90
2019-05-11T05:59:38.439Z,17.43
2019-05-11T06:02:08.113Z,15.90
2019-05-11T06:04:37.781Z,16.03
2019-05-11T06:07:07.442Z,16.27
2019-05-11T06:09:37.213Z,16.07
2019-05-11T06:12:06.901Z,15.90
2019-05-11T06:14:36.567Z,15.13
2019-05-11T06:17:06.308Z,14.57
2019-05-11T06:19:36.001Z,14.93
2019-05-11T06:22:05.655Z,14.57
2019-05-11T06:24:35.317Z,15.10
2019-05-11T06:27:04.997Z,15.90
2019-05-11T06:29:34.662Z,14.43
2019-05-11T06:32:04.355Z,15.67
2019-05-11T06:34:34.025Z,16.40
2019-05-11T06:37:03.698Z,15.43
2019-05-11T06:39:33.364Z,15.60
2019-05-11T06:42:03.051Z,16.67
2019-05-11T06:44:32.785Z,17.20
2019-05-11T06:47:02.543Z,17.20
2019-05-11T06:49:32.223Z,18.23
2019-05-11T06:52:01.882Z,19.33
2019-05-11T06:54:31.556Z,19.30
2019-05-11T06:57:01.222Z,20.43
2019-05-11T06:59:30.909Z,20.43
2019-05-11T07:02:00.580Z,20.97
2019-05-11T07:04:30.248Z,19.03
2019-05-11T07:06:59.913Z,19.53
2019-05-11T07:09:29.580Z,19.83
2019-05-11T07:11:59.334Z,21.17
2019-05-11T07:14:29.289Z,19.50
2019-05-11T07:16:58.946Z,19.93
2019-05-11T07:19:28.635Z,19.60
2019-05-11T07:21:58.301Z,18.43
2019-05-11T07:24:27.966Z,19.17
2019-05-11T07:26:57.643Z,17.43
2019-05-11T07:29:27.311Z,18.33
2019-05-11T07:32:00.662Z,17.57
2019-05-11T07:34:28.440Z,16.43
2019-05-11T07:36:58.118Z,17.20
2019-05-11T07:39:28.079Z,18.33
2019-05-11T07:41:58.445Z,16.50
2019-05-11T07:44:38.271Z,17.73
2019-05-11T07:46:59.613Z,15.47
2019-05-11T07:49:29.347Z,14.30
2019-05-11T07:51:59.090Z,13.80
2019-05-11T07:54:28.746Z,14.17
2019-05-11T07:56:59.629Z,15.90
2019-05-11T07:59:29.298Z,14.80
2019-05-11T08:01:58.961Z,14.70
2019-05-11T08:04:28.932Z,13.20
2019-05-11T08:06:58.634Z,11.67
2019-05-11T08:09:28.456Z,10.50
2019-05-11T08:11:58.588Z,9.33
2019-05-11T08:14:29.035Z,9.80
2019-05-11T08:16:59.545Z,8.63
2019-05-11T08:19:29.317Z,7.87
2019-05-11T08:21:58.978Z,7.47
2019-05-11T08:24:28.651Z,6.80
2019-05-11T08:26:58.465Z,6.37
2019-05-11T08:29:28.156Z,6.43
2019-05-11T08:31:58.105Z,6.10
2019-05-11T08:34:28.696Z,5.97
2019-05-11T08:36:58.603Z,5.37
2019-05-11T08:39:28.975Z,5.90
2019-05-11T08:41:59.165Z,5.87
2019-05-11T08:44:29.013Z,6.00
2019-05-11T08:46:58.676Z,6.03
2019-05-11T08:49:28.860Z,6.20
2019-05-11T08:51:58.825Z,6.20
2019-05-11T08:54:28.955Z,5.90
2019-05-11T08:56:58.931Z,5.63
2019-05-11T08:59:28.597Z,6.00
2019-05-11T09:01:59.814Z,5.33
2019-05-11T09:04:31.057Z,5.50
2019-05-11T09:07:00.727Z,5.57
2019-05-11T09:09:30.383Z,5.53
2019-05-11T09:12:00.057Z,5.47
2019-05-11T09:14:29.711Z,5.60
2019-05-11T09:16:59.367Z,5.93
2019-05-11T09:19:29.329Z,6.20
2019-05-11T09:21:59.083Z,6.40
2019-05-11T09:24:28.735Z,6.50
2019-05-11T09:26:58.752Z,7.90
2019-05-11T09:29:28.548Z,6.53
2019-05-11T09:31:58.525Z,5.77
2019-05-11T09:34:28.840Z,6.00
2019-05-11T09:36:58.860Z,6.07
2019-05-11T09:39:28.456Z,6.23
2019-05-11T09:41:58.641Z,6.30
2019-05-11T09:44:28.990Z,5.80
2019-05-11T09:47:02.350Z,6.57
2019-05-11T09:49:43.789Z,5.67
2019-05-11T09:52:01.542Z,6.47
2019-05-11T09:54:31.232Z,5.97
2019-05-11T09:57:00.883Z,7.30
2019-05-11T09:59:30.604Z,6.37
2019-05-11T10:02:00.282Z,7.03
2019-05-11T10:04:29.935Z,6.67
2019-05-11T10:07:00.833Z,7.90
2019-05-11T10:09:30.490Z,6.37
2019-05-11T10:12:00.173Z,8.63
2019-05-11T10:14:29.827Z,7.70
2019-05-11T10:16:59.537Z,7.00
2019-05-11T10:19:29.216Z,7.20
2019-05-11T10:21:58.891Z,7.03
2019-05-11T10:24:28.573Z,6.37
2019-05-11T10:26:58.315Z,6.40
2019-05-11T10:29:28.872Z,6.90
2019-05-11T10:31:58.971Z,7.17
2019-05-11T10:34:30.224Z,6.73
2019-05-11T10:36:59.951Z,6.27
2019-05-11T10:39:29.603Z,6.30
2019-05-11T10:41:59.270Z,6.10
2019-05-11T10:44:29.010Z,6.37
2019-05-11T10:46:59.071Z,6.60
2019-05-11T10:49:29.082Z,5.60
2019-05-11T10:51:58.913Z,5.73
2019-05-11T10:54:28.974Z,6.10
2019-05-11T10:56:58.706Z,6.07
2019-05-11T10:59:28.555Z,6.03
2019-05-11T11:01:59.017Z,5.20
2019-05-11T11:04:29.021Z,5.63
2019-05-11T11:06:59.266Z,5.47
2019-05-11T11:09:30.518Z,5.60
2019-05-11T11:12:02.438Z,4.37
2019-05-11T11:14:32.197Z,4.87
2019-05-11T11:17:01.874Z,4.33
2019-05-11T11:19:31.528Z,4.30
2019-05-11T11:22:28.462Z,4.63
2019-05-11T11:24:34.122Z,4.70
2019-05-11T11:27:03.802Z,4.50
2019-05-11T11:29:33.465Z,4.83
2019-05-11T11:32:03.119Z,4.40
2019-05-11T11:34:32.804Z,3.63
2019-05-11T11:37:03.585Z,2.97
2019-05-11T11:39:33.277Z,3.27
2019-05-11T11:42:02.925Z,3.83
2019-05-11T11:44:32.617Z,3.23
2019-05-11T11:47:02.239Z,2.40
2019-05-11T11:49:31.902Z,2.87
2019-05-11T11:52:01.564Z,2.30
2019-05-11T11:54:31.233Z,2.20
2019-05-11T11:57:00.886Z,2.17
2019-05-11T11:59:30.555Z,2.33
2019-05-11T12:02:00.229Z,2.50
2019-05-11T12:04:29.904Z,2.10
2019-05-11T12:06:59.631Z,1.83
2019-05-11T12:09:29.287Z,2.60
2019-05-11T12:11:58.960Z,2.00
2019-05-11T12:14:28.618Z,2.30
2019-05-11T12:17:07.482Z,3.67
2019-05-11T12:19:29.858Z,3.23
2019-05-11T12:21:59.515Z,3.40
2019-05-11T12:24:29.185Z,3.53
2019-05-11T12:26:58.883Z,2.90
2019-05-11T12:29:28.514Z,2.60
2019-05-11T12:31:59.827Z,3.77
2019-05-11T12:34:30.509Z,2.70
2019-05-11T12:37:00.159Z,1.80
2019-05-11T12:39:29.850Z,2.10
2019-05-11T12:41:59.539Z,2.13
2019-05-11T12:44:29.192Z,1.90
2019-05-11T12:46:59.885Z,1.80
2019-05-11T12:49:29.551Z,2.07
2019-05-11T12:51:59.214Z,2.53
2019-05-11T12:54:28.883Z,2.90
2019-05-11T12:56:58.548Z,3.43
2019-05-11T12:59:28.665Z,3.37
2019-05-11T13:01:59.009Z,2.70
2019-05-11T13:04:29.039Z,2.40
2019-05-11T13:06:58.700Z,2.37
2019-05-11T13:09:28.970Z,20.23
2019-05-11T13:11:58.947Z,2.67
2019-05-11T13:14:28.603Z,3.10
2019-05-11T13:16:58.986Z,1.90
2019-05-11T13:19:28.902Z,2.33
2019-05-11T13:21:59.086Z,2.50
2019-05-11T13:24:28.798Z,2.27
2019-05-11T13:26:59.795Z,2.33
2019-05-11T13:29:29.577Z,2.53
2019-05-11T13:31:59.344Z,3.00
2019-05-11T13:34:31.325Z,3.10
2019-05-11T13:37:00.454Z,2.93
2019-05-11T13:39:30.267Z,3.13
2019-05-11T13:41:59.929Z,3.00
2019-05-11T13:44:29.586Z,2.70
2019-05-11T13:46:59.248Z,2.30
2019-05-11T13:49:32.024Z,2.43
2019-05-11T13:52:00.573Z,2.40
2019-05-11T13:54:30.244Z,2.77
2019-05-11T13:56:59.908Z,3.00
2019-05-11T13:59:29.565Z,2.70
2019-05-11T14:01:59.267Z,3.00
2019-05-11T14:04:28.999Z,3.07
2019-05-11T14:06:58.761Z,2.73
2019-05-11T14:09:29.027Z,2.87
2019-05-11T14:11:58.815Z,2.50
2019-05-11T14:14:32.511Z,2.23
2019-05-11T14:17:02.146Z,1.80
2019-05-11T14:19:31.881Z,2.07
2019-05-11T14:22:01.549Z,1.70
2019-05-11T14:24:31.219Z,2.10
2019-05-11T14:27:00.883Z,2.10
2019-05-11T14:29:30.533Z,1.80
2019-05-11T14:32:00.280Z,1.90
2019-05-11T14:34:29.934Z,2.10
2019-05-11T14:36:59.678Z,2.20
2019-05-11T14:39:29.330Z,2.20
2019-05-11T14:41:59.013Z,2.60
2019-05-11T14:44:28.801Z,2.23
2019-05-11T14:46:59.238Z,2.13
2019-05-11T14:49:30.708Z,2.43
2019-05-11T14:52:00.363Z,1.97
2019-05-11T14:54:30.065Z,2.23
2019-05-11T14:56:59.745Z,2.50
2019-05-11T14:59:29.466Z,3.27
2019-05-11T15:01:59.133Z,4.40
2019-05-11T15:04:28.884Z,4.03
2019-05-11T15:06:59.551Z,2.43
2019-05-11T15:09:29.231Z,2.00
2019-05-11T15:11:58.892Z,2.10
2019-05-11T15:14:30.283Z,2.17
2019-05-11T15:16:59.954Z,2.30
2019-05-11T15:19:29.618Z,2.10
2019-05-11T15:21:59.296Z,2.57
2019-05-11T15:24:29.062Z,2.83
2019-05-11T15:26:58.706Z,2.53
2019-05-11T15:29:28.869Z,4.00
2019-05-11T15:31:58.517Z,2.63
2019-05-11T15:34:29.841Z,2.60
2019-05-11T15:36:59.496Z,2.53
2019-05-11T15:39:30.296Z,3.00
2019-05-11T15:42:09.670Z,2.80
2019-05-11T15:44:31.459Z,2.40
2019-05-11T15:47:01.077Z,2.77
2019-05-11T15:49:30.729Z,2.87
2019-05-11T15:52:00.460Z,2.70
2019-05-11T15:54:30.144Z,3.20
2019-05-11T15:57:00.088Z,4.83
2019-05-11T15:59:30.611Z,3.37
2019-05-11T16:02:01.721Z,3.43
2019-05-11T16:04:31.386Z,3.30
2019-05-11T16:07:01.049Z,4.27
2019-05-11T16:09:30.708Z,4.83
2019-05-11T16:12:00.373Z,4.77
2019-05-11T16:14:30.030Z,4.97
2019-05-11T16:16:59.760Z,5.40
2019-05-11T16:19:29.418Z,5.57
2019-05-11T16:21:59.071Z,6.60
2019-05-11T16:24:28.820Z,6.03
2019-05-11T16:26:58.551Z,5.83
2019-05-11T16:29:28.225Z,5.70
2019-05-11T16:31:58.028Z,5.63
2019-05-11T16:34:29.235Z,6.13
2019-05-11T16:36:58.890Z,7.40
2019-05-11T16:39:28.572Z,4.77
2019-05-11T16:41:58.328Z,4.73
2019-05-11T16:44:27.957Z,4.90
2019-05-11T16:46:58.645Z,28.10
2019-05-11T16:49:32.167Z,9.20
2019-05-11T16:52:01.010Z,6.83
2019-05-11T16:54:30.689Z,4.00
2019-05-11T16:57:00.345Z,4.30
2019-05-11T16:59:30.112Z,4.40
2019-05-11T17:01:59.760Z,4.23
2019-05-11T17:04:31.299Z,4.23
2019-05-11T17:07:01.145Z,4.60
2019-05-11T17:09:30.833Z,5.07
2019-05-11T17:12:00.485Z,5.03
2019-05-11T17:14:30.148Z,5.67
2019-05-11T17:16:59.803Z,5.13
2019-05-11T17:19:42.876Z,4.47
2019-05-11T17:22:00.923Z,4.57
2019-05-11T17:24:30.587Z,4.03
2019-05-11T17:27:01.843Z,3.70
2019-05-11T17:29:31.579Z,3.27
2019-05-11T17:32:01.250Z,3.33
2019-05-11T17:34:30.917Z,2.93
2019-05-11T17:37:00.578Z,3.20
2019-05-11T17:39:30.245Z,3.73
2019-05-11T17:41:59.895Z,7.17
2019-05-11T17:44:29.556Z,10.10
2019-05-11T17:47:00.148Z,16.77
2019-05-11T17:49:29.822Z,5.20
2019-05-11T17:51:59.475Z,4.07
2019-05-11T17:54:29.221Z,2.67
2019-05-11T17:56:58.967Z,2.67
2019-05-11T17:59:28.700Z,1.80
2019-05-11T18:01:58.377Z,2.00
2019-05-11T18:04:28.035Z,2.13
2019-05-11T18:06:58.826Z,3.53
2019-05-11T18:09:28.724Z,4.20
2019-05-11T18:11:58.638Z,2.43
2019-05-11T18:14:28.497Z,2.30
2019-05-11T18:16:58.954Z,2.37
2019-05-11T18:19:30.006Z,2.67
2019-05-11T18:21:59.666Z,2.50
2019-05-11T18:24:29.329Z,2.57
2019-05-11T18:26:59.239Z,2.80
2019-05-11T18:29:29.027Z,2.70
2019-05-11T18:31:58.709Z,2.87
2019-05-11T18:34:28.364Z,2.83
2019-05-11T18:36:58.034Z,2.20
2019-05-11T18:39:28.666Z,2.40
2019-05-11T18:41:58.818Z,2.67
2019-05-11T18:44:28.482Z,2.33
2019-05-11T18:46:59.324Z,3.47
2019-05-11T18:49:28.991Z,3.37
2019-05-11T18:51:58.746Z,2.47
2019-05-11T18:54:28.388Z,2.70
2019-05-11T18:56:58.914Z,3.17
2019-05-11T18:59:28.626Z,2.70
2019-05-11T19:01:58.719Z,2.93
2019-05-11T19:04:28.846Z,3.20
2019-05-11T19:07:12.819Z,3.07
2019-05-11T19:09:29.871Z,3.40
2019-05-11T19:11:59.902Z,3.30
2019-05-11T19:14:29.559Z,3.30
2019-05-11T19:16:59.295Z,3.40
2019-05-11T19:19:29.165Z,3.43
2019-05-11T19:21:58.857Z,3.27
2019-05-11T19:24:28.517Z,3.13
2019-05-11T19:26:58.821Z,3.20
2019-05-11T19:29:28.625Z,3.30
2019-05-11T19:31:58.291Z,4.30
2019-05-11T19:34:28.208Z,3.43
2019-05-11T19:36:58.051Z,3.77
2019-05-11T19:39:28.083Z,3.53
2019-05-11T19:41:58.144Z,3.40
2019-05-11T19:44:28.043Z,3.73
2019-05-11T19:46:58.155Z,3.40
2019-05-11T19:49:28.036Z,3.60
2019-05-11T19:51:57.838Z,3.67
2019-05-11T19:54:28.940Z,3.63
2019-05-11T19:56:58.675Z,3.70
2019-05-11T19:59:28.328Z,3.20
2019-05-11T20:01:59.992Z,3.60
2019-05-11T20:04:29.388Z,3.47
2019-05-11T20:06:59.054Z,3.93
2019-05-11T20:09:28.720Z,3.33
2019-05-11T20:11:58.403Z,3.30
2019-05-11T20:14:28.457Z,3.53
2019-05-11T20:16:59.518Z,3.97
2019-05-11T20:19:29.305Z,4.57
2019-05-11T20:21:58.967Z,4.03
2019-05-11T20:24:28.618Z,4.80
2019-05-11T20:26:58.279Z,4.40
2019-05-11T20:29:27.997Z,4.40
2019-05-11T20:31:57.908Z,3.90
2019-05-11T20:34:28.776Z,3.93
2019-05-11T20:36:58.843Z,4.07
2019-05-11T20:39:28.845Z,4.97
2019-05-11T20:41:58.641Z,4.00
2019-05-11T20:44:28.789Z,4.53
2019-05-11T20:46:58.569Z,4.27
2019-05-11T20:49:28.419Z,4.60
2019-05-11T20:51:58.215Z,5.20
2019-05-11T20:54:28.249Z,5.07
2019-05-11T20:56:58.581Z,5.27
2019-05-11T20:59:29.026Z,5.07
2019-05-11T21:01:58.968Z,5.00
2019-05-11T21:04:28.583Z,5.00
2019-05-11T21:06:58.730Z,5.53
2019-05-11T21:09:28.977Z,5.60
2019-05-11T21:11:59.175Z,5.27
2019-05-11T21:14:29.112Z,6.03
2019-05-11T21:16:58.959Z,6.30
2019-05-11T21:19:30.210Z,6.27
2019-05-11T21:21:59.839Z,6.27
2019-05-11T21:24:29.520Z,6.27
2019-05-11T21:26:59.202Z,6.00
2019-05-11T21:29:31.431Z,7.13
2019-05-11T21:32:00.243Z,6.37
2019-05-11T21:34:30.972Z,6.27
2019-05-11T21:37:00.815Z,7.20
2019-05-11T21:39:30.473Z,6.50
2019-05-11T21:42:00.194Z,6.90
2019-05-11T21:44:31.080Z,6.80
2019-05-11T21:47:00.738Z,7.83
2019-05-11T21:49:30.693Z,7.70
2019-05-11T21:52:04.418Z,7.77
2019-05-11T21:54:31.822Z,7.87
2019-05-11T21:57:01.501Z,7.60
2019-05-11T21:59:31.222Z,8.53
2019-05-11T22:02:00.953Z,8.10
2019-05-11T22:04:31.219Z,8.10
2019-05-11T22:07:00.868Z,7.67
2019-05-11T22:09:30.657Z,8.43
2019-05-11T22:12:00.351Z,7.70
2019-05-11T22:14:30.109Z,7.53
2019-05-11T22:17:02.479Z,7.67
2019-05-11T22:19:31.297Z,7.07
2019-05-11T22:22:00.945Z,7.73
2019-05-11T22:24:30.681Z,7.70
2019-05-11T22:27:01.585Z,8.33
2019-05-11T22:29:31.310Z,7.97
2019-05-11T22:32:00.966Z,7.70
2019-05-11T22:34:30.701Z,9.03
2019-05-11T22:37:00.360Z,8.53
2019-05-11T22:39:30.017Z,8.07
2019-05-11T22:41:59.664Z,7.43
2019-05-11T22:44:29.404Z,8.03
2019-05-11T22:46:59.126Z,9.10
2019-05-11T22:49:29.820Z,9.10
2019-05-11T22:51:59.858Z,9.07
2019-05-11T22:54:29.625Z,9.47
2019-05-11T22:56:59.285Z,9.33
2019-05-11T22:59:28.967Z,9.10
2019-05-11T23:01:58.617Z,9.23
2019-05-11T23:04:28.887Z,8.83
2019-05-11T23:06:58.685Z,8.97
2019-05-11T23:09:28.412Z,8.57
2019-05-11T23:12:01.025Z,8.90
2019-05-11T23:14:29.441Z,9.30
2019-05-11T23:16:59.163Z,9.13
2019-05-11T23:19:28.893Z,9.60
2019-05-11T23:21:58.857Z,10.27
2019-05-11T23:24:28.932Z,9.97
2019-05-11T23:26:58.996Z,10.30
2019-05-11T23:29:28.676Z,9.43
2019-05-11T23:31:58.470Z,11.10
2019-05-11T23:34:28.415Z,9.77
2019-05-11T23:36:59.168Z,11.37
2019-05-11T23:39:28.899Z,11.23
2019-05-11T23:41:58.698Z,11.47
2019-05-11T23:44:28.393Z,12.00
2019-05-11T23:46:58.045Z,11.70
2019-05-11T23:49:27.708Z,11.07
2019-05-11T23:51:57.382Z,10.40
2019-05-11T23:54:27.850Z,10.20
2019-05-11T23:56:58.314Z,10.37
2019-05-11T23:59:28.131Z,9.43
